createdAt,value
2022-12-01T00:01:36.541Z,73.66
2022-12-01T00:04:06.240Z,75.64
2022-12-01T00:06:33.802Z,77.00
2022-12-01T00:09:20.265Z,78.26
2022-12-01T00:11:49.745Z,78.99
2022-12-01T00:14:17.420Z,79.50
2022-12-01T00:16:45.538Z,80.11
2022-12-01T00:19:13.179Z,80.67
2022-12-01T00:21:40.821Z,81.15
2022-12-01T00:24:08.772Z,81.68
2022-12-01T00:26:40.822Z,82.04
2022-12-01T00:29:08.545Z,82.39
2022-12-01T00:31:38.845Z,82.70
2022-12-01T00:34:11.146Z,83.53
2022-12-01T00:36:39.371Z,84.10
2022-12-01T00:39:09.488Z,84.25
2022-12-01T00:41:39.520Z,84.87
2022-12-01T00:44:07.054Z,85.03
2022-12-01T00:46:34.825Z,85.73
2022-12-01T00:49:06.844Z,86.00
2022-12-01T00:51:35.428Z,86.42
2022-12-01T00:54:05.320Z,86.39
2022-12-01T00:56:32.927Z,87.14
2022-12-01T00:59:05.060Z,87.00
2022-12-01T01:01:37.345Z,86.55
2022-12-01T01:04:05.173Z,87.51
2022-12-01T01:06:32.903Z,87.59
2022-12-01T01:09:02.829Z,87.84
2022-12-01T01:11:30.386Z,87.68
2022-12-01T01:14:00.009Z,87.62
2022-12-01T01:16:30.383Z,88.19
2022-12-01T01:18:58.584Z,88.32
2022-12-01T01:21:29.096Z,88.72
2022-12-01T01:23:56.676Z,89.02
2022-12-01T01:26:27.216Z,88.87
2022-12-01T01:28:58.284Z,88.77
2022-12-01T01:31:27.517Z,87.71
2022-12-01T01:33:57.084Z,87.90
2022-12-01T01:36:27.603Z,88.02
2022-12-01T01:38:57.816Z,87.02
2022-12-01T01:41:25.763Z,87.42
2022-12-01T01:44:01.875Z,86.51
2022-12-01T01:46:35.095Z,85.75
2022-12-01T01:49:09.208Z,86.69
2022-12-01T01:51:52.603Z,87.41
2022-12-01T01:54:24.935Z,87.87
2022-12-01T01:56:54.052Z,88.00
2022-12-01T01:59:25.369Z,88.29
2022-12-01T02:02:01.277Z,88.25
2022-12-01T02:04:30.405Z,88.62
2022-12-01T02:06:58.029Z,89.12
2022-12-01T02:09:27.828Z,89.95
2022-12-01T02:12:23.276Z,90.16
2022-12-01T02:14:56.633Z,90.04
2022-12-01T02:17:45.745Z,90.53
2022-12-01T02:20:50.621Z,90.74
2022-12-01T02:23:45.597Z,90.96
2022-12-01T02:26:15.824Z,91.63
2022-12-01T02:29:18.455Z,91.78
2022-12-01T02:32:12.475Z,91.92
2022-12-01T02:34:54.986Z,91.92
2022-12-01T02:37:45.114Z,92.21
2022-12-01T02:40:25.797Z,92.54
2022-12-01T02:43:10.179Z,91.69
2022-12-01T02:45:49.598Z,92.43
2022-12-01T02:48:30.693Z,92.23
2022-12-01T02:51:04.164Z,92.05
2022-12-01T02:53:31.804Z,91.72
2022-12-01T02:56:00.336Z,90.81
2022-12-01T02:58:27.842Z,91.56
2022-12-01T03:01:18.110Z,91.92
2022-12-01T03:04:03.939Z,90.89
2022-12-01T03:06:44.166Z,91.14
2022-12-01T03:09:56.288Z,90.89
2022-12-01T03:12:38.991Z,89.07
2022-12-01T03:15:15.349Z,88.77
2022-12-01T03:18:03.168Z,88.79
2022-12-01T03:20:43.804Z,89.09
2022-12-01T03:23:20.956Z,89.95
2022-12-01T03:25:54.080Z,90.24
2022-12-01T03:28:29.983Z,90.78
2022-12-01T03:31:01.970Z,90.74
2022-12-01T03:33:44.763Z,90.59
2022-12-01T03:36:32.800Z,90.56
2022-12-01T03:39:05.923Z,90.52
2022-12-01T03:41:39.552Z,90.47
2022-12-01T03:44:17.704Z,90.15
2022-12-01T03:46:58.197Z,88.98
2022-12-01T03:49:29.102Z,88.02
2022-12-01T03:51:59.670Z,87.78
2022-12-01T03:54:45.351Z,87.40
2022-12-01T03:57:19.836Z,86.85
2022-12-01T03:59:49.248Z,86.83
2022-12-01T04:02:18.170Z,87.58
2022-12-01T04:04:45.671Z,87.76
2022-12-01T04:07:17.613Z,87.25
2022-12-01T04:09:45.226Z,87.59
2022-12-01T04:12:29.210Z,87.59
2022-12-01T04:15:12.516Z,87.63
2022-12-01T04:17:45.463Z,87.89
2022-12-01T04:20:18.677Z,87.18
2022-12-01T04:22:48.894Z,86.52
2022-12-01T04:25:16.863Z,86.04
2022-12-01T04:27:44.381Z,85.14
2022-12-01T04:30:12.504Z,84.76
2022-12-01T04:32:41.802Z,83.86
2022-12-01T04:35:14.887Z,84.23
2022-12-01T04:37:42.476Z,84.49
2022-12-01T04:40:13.459Z,84.69
2022-12-01T04:42:43.347Z,84.30
2022-12-01T04:45:11.586Z,84.03
2022-12-01T04:47:39.118Z,84.00
2022-12-01T04:50:09.756Z,84.26
2022-12-01T04:52:38.538Z,83.97
2022-12-01T04:55:09.279Z,84.47
2022-12-01T04:57:41.441Z,84.87
2022-12-01T05:00:13.408Z,84.93
2022-12-01T05:02:43.644Z,85.14
2022-12-01T05:05:12.395Z,84.95
2022-12-01T05:07:40.255Z,85.05
2022-12-01T05:10:09.505Z,85.95
2022-12-01T05:12:42.124Z,86.63
2022-12-01T05:15:09.968Z,87.31
2022-12-01T05:17:37.525Z,87.52
2022-12-01T05:20:26.715Z,87.97
2022-12-01T05:23:09.739Z,88.19
2022-12-01T05:25:39.830Z,88.52
2022-12-01T05:28:09.954Z,88.65
2022-12-01T05:30:37.514Z,89.25
2022-12-01T05:33:05.058Z,89.55
2022-12-01T05:35:34.629Z,89.70
2022-12-01T05:38:07.528Z,90.21
2022-12-01T05:40:37.758Z,90.42
2022-12-01T05:43:05.683Z,90.50
2022-12-01T05:45:33.861Z,90.65
2022-12-01T05:48:02.958Z,90.85
2022-12-01T05:50:31.467Z,91.13
2022-12-01T05:52:59.067Z,91.64
2022-12-01T05:55:28.822Z,91.87
2022-12-01T05:57:56.376Z,92.12
2022-12-01T06:00:23.962Z,92.09
2022-12-01T06:02:51.537Z,92.37
2022-12-01T06:05:21.548Z,92.72
2022-12-01T06:07:49.391Z,92.95
2022-12-01T06:10:17.634Z,92.82
2022-12-01T06:12:45.733Z,92.87
2022-12-01T06:15:14.119Z,93.07
2022-12-01T06:17:42.258Z,93.30
2022-12-01T06:20:13.708Z,93.36
2022-12-01T06:22:44.235Z,93.59
2022-12-01T06:25:14.195Z,93.28
2022-12-01T06:27:41.780Z,93.56
2022-12-01T06:30:09.974Z,93.62
2022-12-01T06:32:37.794Z,93.56
2022-12-01T06:35:05.623Z,94.13
2022-12-01T06:37:33.536Z,94.29
2022-12-01T06:40:01.119Z,94.16
2022-12-01T06:42:31.620Z,94.24
2022-12-01T06:44:59.230Z,94.26
2022-12-01T06:47:26.797Z,94.72
2022-12-01T06:49:55.323Z,94.38
2022-12-01T06:52:24.259Z,94.13
2022-12-01T06:54:51.884Z,94.22
2022-12-01T06:57:19.845Z,93.88
2022-12-01T06:59:48.064Z,93.53
2022-12-01T07:02:16.998Z,92.98
2022-12-01T07:04:44.634Z,93.06
2022-12-01T07:07:12.339Z,92.91
2022-12-01T07:09:40.709Z,92.75
2022-12-01T07:12:08.646Z,92.70
2022-12-01T07:14:36.681Z,92.51
2022-12-01T07:17:06.869Z,92.19
2022-12-01T07:19:34.495Z,91.88
2022-12-01T07:22:02.109Z,91.38
2022-12-01T07:24:30.826Z,90.57
2022-12-01T07:26:58.390Z,89.93
2022-12-01T07:29:28.454Z,88.78
2022-12-01T07:31:58.111Z,87.56
2022-12-01T07:34:25.989Z,85.44
2022-12-01T07:36:53.659Z,84.09
2022-12-01T07:39:21.409Z,82.71
2022-12-01T07:41:49.011Z,81.88
2022-12-01T07:44:16.542Z,81.31
2022-12-01T07:46:44.169Z,80.10
2022-12-01T07:49:15.020Z,79.92
2022-12-01T07:51:47.192Z,80.02
2022-12-01T07:54:17.657Z,80.07
2022-12-01T07:56:46.623Z,80.13
2022-12-01T07:59:16.117Z,79.47
2022-12-01T08:01:44.850Z,77.81
2022-12-01T08:04:13.155Z,75.14
2022-12-01T08:06:43.140Z,73.39
2022-12-01T08:09:10.679Z,71.07
2022-12-01T08:11:38.308Z,70.52
2022-12-01T08:14:07.433Z,68.54
2022-12-01T08:16:35.260Z,66.42
2022-12-01T08:19:02.809Z,68.45
2022-12-01T08:21:37.455Z,67.76
2022-12-01T08:24:07.153Z,65.67
2022-12-01T08:26:34.913Z,65.35
2022-12-01T08:29:02.781Z,62.93
2022-12-01T08:31:33.476Z,62.54
2022-12-01T08:34:01.015Z,60.92
2022-12-01T08:36:28.741Z,61.23
2022-12-01T08:38:56.846Z,63.71
2022-12-01T08:41:25.326Z,59.72
2022-12-01T08:43:58.331Z,60.27
2022-12-01T08:46:34.309Z,59.71
2022-12-01T08:49:04.094Z,59.13
2022-12-01T08:51:36.355Z,58.43
2022-12-01T08:54:05.552Z,59.30
2022-12-01T08:56:37.095Z,58.23
2022-12-01T08:59:05.455Z,58.34
2022-12-01T09:01:33.928Z,54.95
2022-12-01T09:04:08.475Z,56.77
2022-12-01T09:06:42.821Z,55.18
2022-12-01T09:09:12.443Z,56.62
2022-12-01T09:11:40.533Z,55.74
2022-12-01T09:14:08.102Z,54.89
2022-12-01T09:16:35.716Z,55.50
2022-12-01T09:19:05.108Z,54.23
2022-12-01T09:21:33.844Z,49.27
2022-12-01T09:24:03.347Z,52.16
2022-12-01T09:26:35.057Z,53.96
2022-12-01T09:29:08.650Z,51.49
2022-12-01T09:31:37.211Z,50.60
2022-12-01T09:34:08.437Z,51.89
2022-12-01T09:36:37.338Z,50.84
2022-12-01T09:39:06.559Z,48.92
2022-12-01T09:41:53.091Z,51.34
2022-12-01T09:44:26.479Z,52.25
2022-12-01T09:47:08.070Z,51.98
2022-12-01T09:49:55.388Z,51.07
2022-12-01T09:52:30.278Z,52.88
2022-12-01T09:55:00.294Z,52.34
2022-12-01T09:57:41.801Z,53.10
2022-12-01T10:00:22.498Z,53.37
2022-12-01T10:02:54.707Z,54.66
2022-12-01T10:05:25.895Z,55.11
2022-12-01T10:08:05.237Z,56.41
2022-12-01T10:10:38.929Z,56.67
2022-12-01T10:13:27.972Z,57.12
2022-12-01T10:15:56.647Z,57.32
2022-12-01T10:18:30.727Z,56.96
2022-12-01T10:21:24.354Z,57.36
2022-12-01T10:24:29.106Z,57.81
2022-12-01T10:26:59.668Z,57.99
2022-12-01T10:29:32.951Z,57.50
2022-12-01T10:32:12.534Z,57.63
2022-12-01T10:34:42.779Z,57.30
2022-12-01T10:37:26.835Z,57.05
2022-12-01T10:39:57.552Z,57.12
2022-12-01T10:42:45.018Z,56.92
2022-12-01T10:45:28.298Z,57.54
2022-12-01T10:48:15.879Z,57.18
2022-12-01T10:50:47.900Z,56.92
2022-12-01T10:53:27.144Z,57.85
2022-12-01T10:56:18.194Z,58.19
2022-12-01T10:58:57.583Z,58.33
2022-12-01T11:01:35.623Z,57.95
2022-12-01T11:04:45.637Z,58.64
2022-12-01T11:07:42.834Z,58.92
2022-12-01T11:10:24.155Z,59.10
2022-12-01T11:13:20.571Z,59.37
2022-12-01T11:15:57.797Z,59.47
2022-12-01T11:18:35.133Z,60.01
2022-12-01T11:21:26.827Z,59.80
2022-12-01T11:23:57.458Z,60.17
2022-12-01T11:26:28.227Z,60.45
2022-12-01T11:29:03.951Z,60.11
2022-12-01T11:31:49.044Z,60.06
2022-12-01T11:34:38.419Z,59.02
2022-12-01T11:37:10.338Z,58.66
2022-12-01T11:39:40.597Z,57.79
2022-12-01T11:42:38.566Z,56.21
2022-12-01T11:45:24.731Z,55.67
2022-12-01T11:48:15.877Z,55.31
2022-12-01T11:50:45.183Z,54.54
2022-12-01T11:53:29.166Z,54.36
2022-12-01T11:56:18.317Z,54.57
2022-12-01T11:58:51.399Z,57.63
2022-12-01T12:01:28.063Z,57.74
2022-12-01T12:04:26.464Z,59.65
2022-12-01T12:07:06.371Z,60.32
2022-12-01T12:10:24.089Z,60.37
2022-12-01T12:13:25.321Z,58.76
2022-12-01T12:15:59.113Z,57.32
2022-12-01T12:18:43.647Z,56.96
2022-12-01T12:21:24.926Z,57.27
2022-12-01T12:24:39.083Z,57.12
2022-12-01T12:27:09.835Z,56.22
2022-12-01T12:29:55.699Z,54.68
2022-12-01T12:32:48.508Z,54.30
2022-12-01T12:35:53.367Z,55.76
2022-12-01T12:38:54.315Z,55.15
2022-12-01T12:41:36.550Z,56.66
2022-12-01T12:44:06.958Z,56.90
2022-12-01T12:46:56.252Z,57.13
2022-12-01T12:49:49.033Z,56.57
2022-12-01T12:52:24.428Z,55.80
2022-12-01T12:54:57.830Z,55.47
2022-12-01T12:57:36.034Z,55.84
2022-12-01T13:00:08.518Z,55.24
2022-12-01T13:02:47.505Z,55.87
2022-12-01T13:05:36.190Z,55.40
2022-12-01T13:08:09.579Z,55.11
2022-12-01T13:10:58.987Z,55.61
2022-12-01T13:13:34.681Z,55.11
2022-12-01T13:16:04.510Z,55.64
2022-12-01T13:18:40.362Z,55.84
2022-12-01T13:21:08.594Z,56.61
2022-12-01T13:23:39.661Z,56.76
2022-12-01T13:26:10.576Z,57.19
2022-12-01T13:28:44.912Z,57.47
2022-12-01T13:31:17.175Z,58.36
2022-12-01T13:34:06.132Z,59.23
2022-12-01T13:36:50.190Z,59.87
2022-12-01T13:39:35.664Z,60.12
2022-12-01T13:42:09.055Z,60.58
2022-12-01T13:44:43.032Z,61.22
2022-12-01T13:47:13.335Z,62.53
2022-12-01T13:49:45.403Z,62.94
2022-12-01T13:52:22.224Z,62.43
2022-12-01T13:55:08.172Z,63.50
2022-12-01T13:57:58.319Z,64.15
2022-12-01T14:00:26.076Z,64.42
2022-12-01T14:03:19.505Z,64.50
2022-12-01T14:05:56.405Z,65.42
2022-12-01T14:08:48.039Z,66.34
2022-12-01T14:11:23.504Z,67.15
2022-12-01T14:14:07.473Z,67.57
2022-12-01T14:16:54.785Z,68.10
2022-12-01T14:19:47.285Z,67.75
2022-12-01T14:22:42.003Z,68.11
2022-12-01T14:25:24.218Z,67.64
2022-12-01T14:28:01.385Z,68.50
2022-12-01T14:30:40.946Z,68.96
2022-12-01T14:33:46.025Z,68.68
2022-12-01T14:36:32.041Z,69.53
2022-12-01T14:38:59.496Z,71.02
2022-12-01T14:41:32.827Z,71.75
2022-12-01T14:44:12.432Z,71.17
2022-12-01T14:46:45.947Z,72.06
2022-12-01T14:49:23.961Z,73.27
2022-12-01T14:51:57.815Z,73.48
2022-12-01T14:54:34.857Z,73.72
2022-12-01T14:57:07.555Z,74.35
2022-12-01T14:59:38.128Z,75.05
2022-12-01T15:02:09.274Z,75.49
2022-12-01T15:05:16.758Z,75.87
2022-12-01T15:07:47.969Z,76.63
2022-12-01T15:10:34.553Z,76.93
2022-12-01T15:13:28.022Z,78.01
2022-12-01T15:16:02.644Z,78.47
2022-12-01T15:18:34.920Z,78.77
2022-12-01T15:21:09.693Z,79.02
2022-12-01T15:23:38.182Z,78.93
2022-12-01T15:26:07.861Z,79.95
2022-12-01T15:28:37.128Z,80.19
2022-12-01T15:31:12.429Z,80.21
2022-12-01T15:33:48.777Z,80.86
2022-12-01T15:36:16.490Z,81.39
2022-12-01T15:38:47.160Z,80.99
2022-12-01T15:41:29.510Z,81.29
2022-12-01T15:44:03.763Z,82.18
2022-12-01T15:46:34.401Z,81.70
2022-12-01T15:49:30.148Z,82.32
2022-12-01T15:52:13.486Z,82.68
2022-12-01T15:54:41.146Z,83.23
2022-12-01T15:57:09.104Z,83.15
2022-12-01T15:59:46.721Z,83.55
2022-12-01T16:02:36.717Z,83.13
2022-12-01T16:05:27.702Z,83.21
2022-12-01T16:10:43.277Z,84.22
2022-12-01T16:13:42.121Z,84.05
2022-12-01T16:16:32.539Z,83.87
2022-12-01T16:19:14.195Z,84.18
2022-12-01T16:21:54.251Z,84.61
2022-12-01T16:24:24.404Z,84.95
2022-12-01T16:27:05.838Z,84.87
2022-12-01T16:29:49.472Z,84.96
2022-12-01T16:32:24.241Z,85.40
2022-12-01T16:34:54.415Z,85.38
2022-12-01T16:37:24.576Z,85.53
2022-12-01T16:39:52.116Z,85.62
2022-12-01T16:42:23.077Z,85.96
2022-12-01T16:44:52.731Z,85.66
2022-12-01T16:47:24.451Z,85.61
2022-12-01T16:49:54.482Z,86.14
2022-12-01T16:52:44.971Z,85.85
2022-12-01T16:55:40.996Z,86.03
2022-12-01T16:58:08.599Z,86.22
2022-12-01T17:00:36.662Z,86.73
2022-12-01T17:03:05.410Z,86.29
2022-12-01T17:05:33.513Z,86.50
2022-12-01T17:08:08.723Z,86.32
2022-12-01T17:10:36.406Z,86.87
2022-12-01T17:13:03.985Z,87.11
2022-12-01T17:15:35.091Z,87.28
2022-12-01T17:18:05.330Z,87.45
2022-12-01T17:20:32.928Z,87.32
2022-12-01T17:23:02.179Z,87.85
2022-12-01T17:25:32.190Z,88.08
2022-12-01T17:28:02.918Z,87.99
2022-12-01T17:30:30.481Z,88.71
2022-12-01T17:32:59.268Z,88.48
2022-12-01T17:35:26.813Z,88.54
2022-12-01T17:37:54.471Z,88.85
2022-12-01T17:40:22.046Z,89.09
2022-12-01T17:42:51.128Z,88.84
2022-12-01T17:45:19.825Z,89.09
2022-12-01T17:47:47.643Z,89.57
2022-12-01T17:50:15.724Z,89.67
2022-12-01T17:52:43.374Z,89.68
2022-12-01T17:55:11.028Z,89.63
2022-12-01T17:57:38.699Z,90.18
2022-12-01T18:00:07.432Z,90.04
2022-12-01T18:02:35.151Z,90.29
2022-12-01T18:05:05.189Z,90.34
2022-12-01T18:07:32.844Z,90.63
2022-12-01T18:10:00.535Z,90.60
2022-12-01T18:12:30.613Z,90.67
2022-12-01T18:15:00.686Z,90.67
2022-12-01T18:17:30.517Z,90.41
2022-12-01T18:20:00.772Z,90.88
2022-12-01T18:22:31.903Z,91.23
2022-12-01T18:24:59.462Z,90.94
2022-12-01T18:27:27.024Z,91.21
2022-12-01T18:29:54.655Z,91.19
2022-12-01T18:32:22.205Z,91.31
2022-12-01T18:34:50.215Z,91.59
2022-12-01T18:37:20.276Z,91.91
2022-12-01T18:39:48.046Z,92.15
2022-12-01T18:42:18.265Z,91.84
2022-12-01T18:44:45.800Z,91.98
2022-12-01T18:47:13.328Z,92.00
2022-12-01T18:49:40.922Z,92.13
2022-12-01T18:52:08.476Z,92.09
2022-12-01T18:54:38.610Z,92.14
2022-12-01T18:57:06.260Z,92.26
2022-12-01T18:59:36.230Z,92.42
2022-12-01T19:02:05.413Z,92.45
2022-12-01T19:04:33.025Z,92.46
2022-12-01T19:07:03.182Z,92.65
2022-12-01T19:09:30.747Z,92.78
2022-12-01T19:12:00.230Z,92.77
2022-12-01T19:14:29.598Z,93.08
2022-12-01T19:16:57.427Z,93.18
2022-12-01T19:19:27.421Z,93.42
2022-12-01T19:21:57.094Z,93.70
2022-12-01T19:24:29.423Z,93.61
2022-12-01T19:26:56.949Z,93.68
2022-12-01T19:29:26.952Z,93.75
2022-12-01T19:31:54.790Z,93.91
2022-12-01T19:34:22.579Z,94.13
2022-12-01T19:36:53.674Z,94.09
2022-12-01T19:39:23.845Z,94.36
2022-12-01T19:41:51.444Z,94.36
2022-12-01T19:44:19.069Z,94.07
2022-12-01T19:46:49.172Z,94.51
2022-12-01T19:49:19.179Z,94.70
2022-12-01T19:51:46.904Z,94.79
2022-12-01T19:54:20.565Z,94.62
2022-12-01T19:56:48.981Z,94.84
2022-12-01T19:59:16.598Z,95.00
2022-12-01T20:01:45.945Z,95.10
2022-12-01T20:04:13.697Z,95.28
2022-12-01T20:06:43.535Z,95.22
2022-12-01T20:09:11.100Z,95.59
2022-12-01T20:11:38.669Z,95.27
2022-12-01T20:14:07.596Z,95.44
2022-12-01T20:16:37.979Z,95.50
2022-12-01T20:19:06.585Z,95.56
2022-12-01T20:21:39.276Z,96.01
2022-12-01T20:24:08.583Z,96.27
2022-12-01T20:26:40.185Z,96.46
2022-12-01T20:29:27.053Z,96.76
2022-12-01T20:31:56.386Z,96.69
2022-12-01T20:34:28.536Z,96.81
2022-12-01T20:36:56.400Z,97.14
2022-12-01T20:39:24.693Z,97.06
2022-12-01T20:41:54.540Z,97.09
2022-12-01T20:44:22.068Z,97.56
2022-12-01T20:46:49.620Z,97.45
2022-12-01T20:49:18.851Z,97.72
2022-12-01T20:51:49.555Z,97.70
2022-12-01T20:54:33.975Z,98.11
2022-12-01T20:57:04.272Z,98.23
2022-12-01T20:59:31.845Z,98.20
2022-12-01T21:01:59.461Z,98.30
2022-12-01T21:04:29.734Z,98.29
2022-12-01T21:06:58.924Z,98.07
2022-12-01T21:09:27.414Z,98.65
2022-12-01T21:12:17.186Z,98.39
2022-12-01T21:15:17.874Z,98.47
2022-12-01T21:17:53.907Z,98.50
2022-12-01T21:20:42.953Z,98.54
2022-12-01T21:23:18.404Z,98.59
2022-12-01T21:25:47.961Z,98.64
2022-12-01T21:28:19.758Z,98.74
2022-12-01T21:30:48.753Z,98.56
2022-12-01T21:33:28.606Z,98.82
2022-12-01T21:36:04.080Z,98.92
2022-12-01T21:38:32.797Z,99.11
2022-12-01T21:41:05.649Z,99.17
2022-12-01T21:43:38.046Z,99.39
2022-12-01T21:46:14.928Z,99.42
2022-12-01T21:48:46.445Z,99.21
2022-12-01T21:51:24.868Z,99.46
2022-12-01T21:53:56.672Z,99.61
2022-12-01T21:56:32.584Z,99.78
2022-12-01T21:59:07.767Z,99.51
2022-12-01T22:01:35.441Z,100.00
2022-12-01T22:04:11.980Z,100.00
2022-12-01T22:06:42.095Z,100.00
2022-12-01T22:09:30.497Z,100.00
2022-12-01T22:12:16.292Z,100.00
2022-12-01T22:14:43.850Z,100.00
2022-12-01T22:17:11.326Z,99.77
2022-12-01T22:19:46.804Z,99.71
2022-12-01T22:22:15.591Z,99.26
2022-12-01T22:24:54.533Z,99.10
2022-12-01T22:27:28.278Z,98.78
2022-12-01T22:30:07.652Z,98.53
2022-12-01T22:32:37.943Z,98.52
2022-12-01T22:35:23.584Z,97.96
2022-12-01T22:38:01.793Z,98.00
2022-12-01T22:40:37.635Z,97.92
2022-12-01T22:43:17.119Z,97.91
2022-12-01T22:45:46.107Z,97.90
2022-12-01T22:48:29.656Z,97.82
2022-12-01T22:51:15.976Z,97.77
2022-12-01T22:53:47.426Z,97.78
2022-12-01T22:56:42.145Z,98.08
2022-12-01T22:59:16.879Z,98.03
2022-12-01T23:01:49.067Z,98.15
2022-12-01T23:04:31.297Z,98.24
2022-12-01T23:07:00.401Z,97.92
2022-12-01T23:09:41.028Z,97.99
2022-12-01T23:12:23.844Z,98.10
2022-12-01T23:14:55.638Z,98.26
2022-12-01T23:17:25.270Z,98.39
2022-12-01T23:19:59.216Z,98.20
2022-12-01T23:22:27.760Z,98.26
2022-12-01T23:24:57.819Z,98.14
2022-12-01T23:27:27.858Z,98.31
2022-12-01T23:29:55.488Z,98.42
2022-12-01T23:32:23.029Z,98.40
2022-12-01T23:34:52.699Z,98.46
2022-12-01T23:37:38.548Z,98.57
2022-12-01T23:40:19.099Z,98.66
2022-12-01T23:42:46.777Z,98.76
2022-12-01T23:45:31.065Z,98.60
2022-12-01T23:48:06.818Z,98.60
2022-12-01T23:50:38.452Z,98.56
2022-12-01T23:53:23.252Z,98.56
2022-12-01T23:55:51.179Z,98.45
2022-12-01T23:58:18.997Z,98.37
